Time;durP1;ratioP1;P1;durP2;ratioP2;P2;SDS_P1;SDS_P2;PMS_P1;PMS_P2;Temp;Humidity;BMP_temperature;BMP_pressure;BME280_temperature;BME280_humidity;BME280_pressure;Samples;Min_cycle;Max_cycle;Signal;HPM_P1;HPM_P2
2022/09/25 00:01:26;;;;;;;57.30;35.50;;;;;;;21.42;100.00;95942.81;5095739;28;20094;-50
2022/09/25 00:03:54;;;;;;;57.42;34.15;;;;;;;21.22;100.00;95944.88;5094438;28;20163;-51
2022/09/25 00:06:25;;;;;;;76.18;37.22;;;;;;;21.26;100.00;95941.50;5103181;27;20100;-57
2022/09/25 00:08:54;;;;;;;61.92;35.20;;;;;;;21.17;100.00;95947.41;5102627;27;20071;-51
2022/09/25 00:11:26;;;;;;;64.53;35.80;;;;;;;21.47;100.00;95950.16;5101076;28;20102;-50
2022/09/25 00:13:55;;;;;;;69.22;37.00;;;;;;;21.49;100.00;95938.16;5097511;28;20067;-53
2022/09/25 00:16:25;;;;;;;75.95;38.33;;;;;;;21.53;100.00;95939.34;5096219;28;20075;-56
2022/09/25 00:21:42;;;;;;;74.50;36.17;;;;;;;21.38;100.00;95933.56;5098149;28;20063;-49
2022/09/25 00:24:12;;;;;;;65.10;35.97;;;;;;;21.36;100.00;95932.97;5100047;28;20542;-50
2022/09/25 00:26:42;;;;;;;87.97;38.83;;;;;;;21.33;100.00;95928.00;5099468;28;20103;-51
2022/09/25 00:29:15;;;;;;;183.10;39.70;;;;;;;21.09;100.00;95935.94;5098111;28;20138;-53
2022/09/25 00:31:44;;;;;;;108.65;36.03;;;;;;;20.29;100.00;95932.34;5100221;28;20071;-51
2022/09/25 00:34:12;;;;;;;96.20;35.70;;;;;;;20.44;100.00;95930.19;5099048;28;20525;-53
2022/09/25 00:36:42;;;;;;;60.85;33.33;;;;;;;20.65;100.00;95926.31;5093279;28;20075;-52
2022/09/25 00:39:10;;;;;;;80.80;33.60;;;;;;;20.53;100.00;95915.47;5083916;28;20075;-50
2022/09/25 00:41:39;;;;;;;95.85;35.20;;;;;;;20.55;100.00;95918.78;5095018;28;20494;-47
2022/09/25 00:44:40;;;;;;;89.22;35.15;;;;;;;20.80;100.00;95916.03;5100508;28;20809;-47
2022/09/25 00:47:11;;;;;;;103.10;35.85;;;;;;;20.61;100.00;95914.38;5100185;28;20086;-48
2022/09/25 00:49:39;;;;;;;107.50;36.88;;;;;;;20.75;100.00;95907.00;5096403;28;20067;-48
2022/09/25 00:52:12;;;;;;;203.77;39.00;;;;;;;19.89;100.00;95909.38;5094985;28;20079;-55
2022/09/25 00:54:43;;;;;;;258.13;41.42;;;;;;;20.48;100.00;95907.25;5093869;28;20068;-51
2022/09/25 00:57:15;;;;;;;86.38;35.70;;;;;;;20.48;100.00;95912.63;5071437;28;20091;-48
2022/09/25 00:59:46;;;;;;;119.65;36.53;;;;;;;20.59;100.00;95906.56;5092663;28;20096;-47
2022/09/25 01:02:20;;;;;;;271.85;42.30;;;;;;;20.93;100.00;95909.72;5097490;28;20558;-50
2022/09/25 01:04:49;;;;;;;232.75;38.60;;;;;;;20.45;100.00;95905.03;5093549;28;21965;-50
2022/09/25 01:07:19;;;;;;;74.47;32.22;;;;;;;20.43;100.00;95908.97;5096102;28;20126;-49
2022/09/25 01:09:47;;;;;;;106.45;35.15;;;;;;;20.28;100.00;95906.63;5100459;28;20802;-50
2022/09/25 01:12:15;;;;;;;122.45;34.20;;;;;;;20.36;100.00;95903.66;5096230;28;20070;-49
2022/09/25 01:14:44;;;;;;;127.15;35.30;;;;;;;20.32;100.00;95907.81;5096535;28;20079;-50
2022/09/25 01:17:17;;;;;;;151.25;36.63;;;;;;;20.52;100.00;95905.00;5086593;28;20079;-48
2022/09/25 01:19:54;;;;;;;79.63;32.85;;;;;;;20.34;100.00;95900.41;5099186;28;20528;-49
2022/09/25 01:22:33;;;;;;;120.72;34.70;;;;;;;20.88;100.00;95904.19;5097408;28;20086;-51
2022/09/25 01:25:10;;;;;;;254.18;38.30;;;;;;;20.69;100.00;95902.56;5099063;28;20509;-50
2022/09/25 01:28:01;;;;;;;143.68;36.90;;;;;;;20.44;100.00;95900.72;5081504;28;20094;-50
2022/09/25 01:30:33;;;;;;;135.88;35.88;;;;;;;20.74;100.00;95900.84;5092207;28;20107;-52
2022/09/25 01:33:06;;;;;;;127.15;34.10;;;;;;;20.70;100.00;95899.66;5081636;28;20063;-48
2022/09/25 01:35:45;;;;;;;158.30;34.05;;;;;;;20.37;100.00;95898.09;5096909;28;20094;-49
2022/09/25 01:38:23;;;;;;;132.90;32.38;;;;;;;20.65;100.00;95894.16;5099763;28;20506;-47
2022/09/25 01:40:56;;;;;;;94.05;31.83;;;;;;;20.58;100.00;95894.22;5088314;28;20081;-46
2022/09/25 01:43:29;;;;;;;80.32;31.77;;;;;;;20.61;100.00;95892.94;5102381;28;20105;-47
2022/09/25 01:46:01;;;;;;;76.55;32.97;;;;;;;20.71;100.00;95887.06;5094619;28;20079;-46
2022/09/25 01:48:32;;;;;;;86.57;33.20;;;;;;;20.65;100.00;95891.47;5098504;28;20071;-48
2022/09/25 01:51:02;;;;;;;106.75;33.67;;;;;;;20.66;100.00;95894.97;5095245;28;20085;-50
2022/09/25 01:53:36;;;;;;;162.70;34.58;;;;;;;20.51;100.00;95885.44;5098573;28;20071;-50
2022/09/25 01:56:08;;;;;;;358.52;40.67;;;;;;;20.52;100.00;95884.38;5101289;28;20138;-48
2022/09/25 01:58:40;;;;;;;437.90;42.55;;;;;;;20.81;100.00;95885.50;5097637;28;20094;-51
2022/09/25 02:01:14;;;;;;;256.08;37.90;;;;;;;20.11;100.00;95885.75;5099757;28;20505;-47
2022/09/25 02:03:47;;;;;;;182.05;36.75;;;;;;;20.57;100.00;95889.06;5095885;28;20082;-45
2022/09/25 02:06:19;;;;;;;346.58;40.63;;;;;;;20.77;100.00;95887.00;5101350;28;20469;-47
2022/09/25 02:08:51;;;;;;;131.27;35.45;;;;;;;20.42;100.00;95883.22;5100916;28;20083;-51
2022/09/25 02:11:20;;;;;;;269.48;40.55;;;;;;;20.31;100.00;95887.44;5103808;28;20071;-48
2022/09/25 02:13:53;;;;;;;270.58;39.90;;;;;;;20.30;100.00;95875.91;5103438;27;20076;-49
2022/09/25 02:16:27;;;;;;;82.50;34.17;;;;;;;20.55;100.00;95886.63;5097263;28;20451;-47
2022/09/25 02:21:47;;;;;;;129.82;35.42;;;;;;;20.02;100.00;95894.25;5101307;28;20615;-47
2022/09/25 02:24:20;;;;;;;305.65;40.40;;;;;;;20.99;100.00;95889.22;5097516;28;20101;-47
2022/09/25 02:26:49;;;;;;;260.45;39.97;;;;;;;20.99;100.00;95890.06;5100402;28;20525;-54
2022/09/25 02:29:18;;;;;;;106.32;33.08;;;;;;;21.13;100.00;95887.22;5098318;27;20475;-49
2022/09/25 02:31:52;;;;;;;135.07;36.00;;;;;;;20.98;100.00;95888.41;5100051;28;20059;-48
2022/09/25 02:34:21;;;;;;;219.25;39.33;;;;;;;20.29;100.00;95889.50;5099321;28;20407;-47
2022/09/25 02:36:49;;;;;;;141.35;36.47;;;;;;;20.73;100.00;95893.03;5101483;28;20525;-53
2022/09/25 02:39:20;;;;;;;83.65;32.65;;;;;;;20.58;100.00;95894.22;5098475;28;20106;-48
2022/09/25 02:41:58;;;;;;;120.65;34.85;;;;;;;20.52;100.00;95900.47;5100093;28;20075;-47
2022/09/25 02:44:33;;;;;;;163.43;36.08;;;;;;;20.80;100.00;95896.47;5099433;27;20076;-47
2022/09/25 02:47:13;;;;;;;251.63;39.15;;;;;;;20.82;100.00;95899.75;5099437;28;20115;-50
2022/09/25 02:49:50;;;;;;;193.40;36.05;;;;;;;20.30;100.00;95902.69;5099325;28;20079;-47
2022/09/25 02:52:25;;;;;;;94.35;34.03;;;;;;;20.91;100.00;95894.91;5099035;28;20075;-47
2022/09/25 02:54:56;;;;;;;145.65;35.72;;;;;;;20.67;100.00;95891.25;5099178;27;20075;-52
2022/09/25 02:57:31;;;;;;;83.80;34.60;;;;;;;20.61;100.00;95899.13;5104820;27;20081;-52
2022/09/25 03:00:04;;;;;;;99.10;35.80;;;;;;;20.20;100.00;95894.34;5096887;28;20505;-48
2022/09/25 03:02:35;;;;;;;177.98;37.67;;;;;;;20.68;100.00;95887.50;5103168;28;20083;-50
2022/09/25 03:05:05;;;;;;;267.25;40.28;;;;;;;20.92;100.00;95894.69;5098562;28;20083;-47
2022/09/25 03:08:36;;;;;;;255.75;39.90;;;;;;;20.92;100.00;95891.16;5095864;28;20082;-52
2022/09/25 03:10:23;;;;;;;196.88;37.63;;;;;;;19.69;100.00;95889.97;5094660;28;20568;-48
2022/09/25 03:12:52;;;;;;;168.73;35.35;;;;;;;20.44;100.00;95870.41;5096378;28;20071;-51
2022/09/25 03:15:22;;;;;;;80.65;34.28;;;;;;;20.21;100.00;95876.41;5097332;28;20079;-50
2022/09/25 03:17:52;;;;;;;103.38;33.50;;;;;;;19.66;100.00;95867.13;5095069;28;20082;-47
2022/09/25 03:20:20;;;;;;;115.97;33.25;;;;;;;20.21;100.00;95863.03;5099860;28;20087;-48
2022/09/25 03:22:49;;;;;;;159.18;34.85;;;;;;;20.14;100.00;95858.53;5102478;28;20548;-53
2022/09/25 03:25:17;;;;;;;128.65;34.10;;;;;;;19.37;100.00;95870.34;5102154;28;20517;-46
2022/09/25 03:27:47;;;;;;;210.65;36.70;;;;;;;19.87;100.00;95860.59;5098226;28;20083;-49
2022/09/25 03:30:15;;;;;;;157.75;33.53;;;;;;;20.25;100.00;95856.19;5096946;28;20126;-47
2022/09/25 03:32:44;;;;;;;76.28;31.40;;;;;;;20.65;100.00;95861.16;5097535;28;20095;-46
2022/09/25 03:35:14;;;;;;;75.32;32.72;;;;;;;20.91;100.00;95865.41;5098716;28;20071;-48
2022/09/25 03:37:43;;;;;;;138.65;34.22;;;;;;;20.94;100.00;95859.63;5098596;28;20755;-48
2022/09/25 03:40:11;;;;;;;196.88;36.60;;;;;;;19.81;100.00;95853.44;5099518;28;20521;-48
2022/09/25 03:42:39;;;;;;;185.88;35.30;;;;;;;20.56;100.00;95864.16;5095748;28;20098;-47
2022/09/25 03:45:08;;;;;;;97.45;34.45;;;;;;;20.70;100.00;95854.09;5093554;28;20087;-49
2022/09/25 03:47:37;;;;;;;101.82;33.22;;;;;;;20.63;100.00;95851.50;5100187;28;20094;-46
2022/09/25 03:50:07;;;;;;;92.93;31.23;;;;;;;20.31;100.00;95853.44;5099884;28;20490;-52
2022/09/25 03:52:37;;;;;;;169.27;34.17;;;;;;;20.56;100.00;95856.09;5099723;27;20086;-47
2022/09/25 03:55:06;;;;;;;63.00;28.58;;;;;;;20.61;100.00;95855.44;5096642;28;20086;-49
2022/09/25 03:57:34;;;;;;;153.27;32.10;;;;;;;20.14;100.00;95845.16;5094826;28;20396;-49
2022/09/25 04:00:04;;;;;;;200.63;33.67;;;;;;;20.58;100.00;95851.34;5103603;28;20083;-50
2022/09/25 04:02:32;;;;;;;138.38;32.25;;;;;;;20.41;100.00;95850.28;5099438;28;20481;-48
2022/09/25 04:05:03;;;;;;;90.78;29.98;;;;;;;20.08;100.00;95847.88;5095032;28;20091;-47
2022/09/25 04:07:31;;;;;;;195.40;34.08;;;;;;;20.14;100.00;95847.84;5085328;28;20087;-46
2022/09/25 04:10:00;;;;;;;64.47;29.63;;;;;;;20.61;100.00;95848.25;5075818;28;20084;-47
2022/09/25 04:12:29;;;;;;;118.65;31.85;;;;;;;20.86;100.00;95852.69;5077528;28;20056;-46
2022/09/25 04:14:58;;;;;;;148.25;32.97;;;;;;;20.03;100.00;95851.22;5075675;28;20083;-48
2022/09/25 04:17:27;;;;;;;57.95;28.08;;;;;;;20.13;100.00;95848.88;5073955;28;20080;-46
2022/09/25 04:19:56;;;;;;;54.95;28.23;;;;;;;20.53;100.00;95850.38;5078188;28;20079;-47
2022/09/25 04:22:24;;;;;;;122.45;31.60;;;;;;;19.97;100.00;95844.06;5085862;28;20487;-50
2022/09/25 04:24:53;;;;;;;126.93;31.23;;;;;;;19.67;100.00;95833.19;5078822;28;20087;-46
2022/09/25 04:27:23;;;;;;;100.60;30.13;;;;;;;19.31;100.00;95836.47;5072535;28;20091;-46
2022/09/25 04:29:51;;;;;;;118.60;31.70;;;;;;;19.94;100.00;95828.44;5077325;28;20080;-48
2022/09/25 04:35:06;;;;;;;53.83;28.25;;;;;;;20.39;100.00;95826.38;5079474;28;20080;-51
2022/09/25 04:37:34;;;;;;;72.53;29.90;;;;;;;20.22;100.00;95833.34;5075543;28;20478;-46
2022/09/25 04:40:03;;;;;;;92.97;30.25;;;;;;;20.15;100.00;95832.59;5076660;28;20087;-47
2022/09/25 04:42:33;;;;;;;236.70;36.28;;;;;;;20.20;100.00;95835.44;5078421;28;20098;-50
2022/09/25 04:45:01;;;;;;;61.70;29.33;;;;;;;20.06;100.00;95836.56;5072370;28;20557;-50
2022/09/25 04:47:30;;;;;;;105.38;32.00;;;;;;;20.08;100.00;95837.19;5077303;28;20079;-50
2022/09/25 04:49:58;;;;;;;79.30;29.90;;;;;;;20.12;100.00;95838.38;5076844;28;20084;-49
2022/09/25 04:52:30;;;;;;;78.05;30.00;;;;;;;20.15;100.00;95838.75;5075891;28;20522;-48
2022/09/25 04:54:59;;;;;;;59.05;29.25;;;;;;;20.51;100.00;95845.25;5073898;28;20072;-47
2022/09/25 04:57:27;;;;;;;86.47;29.67;;;;;;;20.44;100.00;95846.31;5080837;28;20087;-52
2022/09/25 05:00:18;;;;;;;76.07;28.88;;;;;;;20.15;100.00;95844.09;5069463;28;20080;-46
2022/09/25 05:02:46;;;;;;;78.38;30.00;;;;;;;20.34;100.00;95841.47;5082974;28;20079;-46
2022/09/25 05:05:15;;;;;;;77.80;29.33;;;;;;;20.29;100.00;95849.34;5080621;28;20121;-46
2022/09/25 05:07:51;;;;;;;53.28;28.15;;;;;;;20.54;100.00;95860.88;5090617;28;20090;-49
2022/09/25 05:10:19;;;;;;;60.42;28.85;;;;;;;20.25;100.00;95853.50;5101644;28;20079;-46
2022/09/25 05:12:49;;;;;;;49.92;26.52;;;;;;;20.51;100.00;95858.66;5090420;28;20135;-53
2022/09/25 05:15:19;;;;;;;43.05;25.38;;;;;;;19.81;100.00;95855.31;5096011;28;20083;-45
2022/09/25 05:17:47;;;;;;;42.58;25.05;;;;;;;19.78;100.00;95858.41;5098507;28;20432;-50
2022/09/25 05:20:16;;;;;;;43.15;26.00;;;;;;;19.68;100.00;95853.53;5098754;28;20084;-46
2022/09/25 05:22:44;;;;;;;40.35;24.90;;;;;;;19.89;100.00;95852.38;5097673;28;20094;-51
2022/09/25 05:25:13;;;;;;;39.22;24.92;;;;;;;20.17;100.00;95854.63;5100026;28;20087;-52
2022/09/25 05:27:42;;;;;;;37.22;24.02;;;;;;;20.13;100.00;95864.09;5097533;28;20058;-54
2022/09/25 05:30:11;;;;;;;41.50;23.65;;;;;;;20.23;100.00;95859.06;5100313;28;20466;-47
2022/09/25 05:32:48;;;;;;;40.45;23.30;;;;;;;19.97;100.00;95857.44;5094902;28;20488;-49
2022/09/25 05:35:17;;;;;;;50.75;24.75;;;;;;;19.95;100.00;95862.19;5095119;28;20083;-46
2022/09/25 05:37:46;;;;;;;64.20;24.20;;;;;;;20.43;100.00;95861.56;5092316;28;20084;-50
2022/09/25 05:40:15;;;;;;;66.65;25.13;;;;;;;20.30;100.00;95856.31;5104725;27;20090;-49
2022/09/25 05:42:44;;;;;;;71.20;27.00;;;;;;;20.37;100.00;95860.59;5115101;27;20464;-53
2022/09/25 05:45:12;;;;;;;86.78;28.10;;;;;;;19.55;100.00;95875.00;5100050;27;20095;-47
2022/09/25 05:47:42;;;;;;;71.93;25.35;;;;;;;18.91;100.00;95872.22;5101810;28;20075;-48
2022/09/25 05:50:13;;;;;;;78.78;24.17;;;;;;;18.75;100.00;95872.69;5093089;28;20083;-50
2022/09/25 05:52:41;;;;;;;57.85;23.23;;;;;;;18.26;100.00;95871.31;5104971;27;20084;-51
2022/09/25 05:55:09;;;;;;;75.45;25.02;;;;;;;18.57;100.00;95873.31;5096926;28;20079;-49
2022/09/25 05:57:38;;;;;;;56.30;24.23;;;;;;;18.99;100.00;95868.47;5099149;28;20082;-49
2022/09/25 06:00:08;;;;;;;42.05;21.42;;;;;;;19.24;100.00;95867.78;5100405;27;20103;-52
2022/09/25 06:02:36;;;;;;;42.50;22.60;;;;;;;18.93;100.00;95867.50;5096490;27;20079;-47
2022/09/25 06:05:07;;;;;;;30.23;20.38;;;;;;;18.52;100.00;95867.78;5097510;28;20483;-49
2022/09/25 06:07:36;;;;;;;35.90;21.23;;;;;;;18.24;100.00;95870.72;5093874;28;20075;-47
2022/09/25 06:10:05;;;;;;;38.35;21.13;;;;;;;19.80;100.00;95862.50;5103328;28;20094;-47
2022/09/25 06:12:33;;;;;;;30.02;21.45;;;;;;;20.10;100.00;95861.88;5092757;28;20068;-50
2022/09/25 06:15:02;;;;;;;36.42;20.80;;;;;;;20.28;100.00;95869.13;5098822;28;20075;-49
2022/09/25 06:17:30;;;;;;;36.00;21.17;;;;;;;19.82;100.00;95873.84;5099383;28;20519;-47
2022/09/25 06:19:58;;;;;;;30.05;20.23;;;;;;;19.95;100.00;95867.53;5100604;27;20446;-47
2022/09/25 06:22:29;;;;;;;32.38;20.83;;;;;;;19.51;100.00;95863.94;5096070;28;20079;-49
2022/09/25 06:24:57;;;;;;;26.90;19.27;;;;;;;18.73;100.00;95866.75;5096099;28;20129;-46
2022/09/25 06:27:26;;;;;;;28.30;20.25;;;;;;;19.01;100.00;95866.44;5099248;28;20097;-48
2022/09/25 06:29:54;;;;;;;28.52;19.80;;;;;;;19.19;100.00;95866.53;5099981;27;20098;-52
2022/09/25 06:32:23;;;;;;;26.73;20.02;;;;;;;20.24;100.00;95862.59;5097613;28;20094;-50
2022/09/25 06:34:52;;;;;;;34.15;26.70;;;;;;;20.55;100.00;95867.88;5105067;27;20516;-46
2022/09/25 06:37:20;;;;;;;34.90;29.25;;;;;;;20.60;100.00;95865.31;5096499;28;20331;-47
2022/09/25 06:39:50;;;;;;;46.25;20.52;;;;;;;20.04;100.00;95860.06;5104602;27;20083;-49
2022/09/25 06:42:18;;;;;;;41.53;20.07;;;;;;;19.33;100.00;95855.78;5101555;27;20431;-48
2022/09/25 06:44:46;;;;;;;57.80;20.40;;;;;;;19.72;100.00;95856.59;5100444;28;20465;-53
2022/09/25 06:47:15;;;;;;;41.38;21.75;;;;;;;19.71;100.00;95853.09;5106257;28;20075;-47
2022/09/25 06:49:48;;;;;;;44.75;19.40;;;;;;;19.85;100.00;95853.81;5103406;27;20079;-48
2022/09/25 06:52:16;;;;;;;30.75;19.88;;;;;;;20.03;100.00;95853.09;5102827;28;21106;-47
2022/09/25 06:54:44;;;;;;;40.38;19.63;;;;;;;20.32;100.00;95854.25;5103698;28;20075;-48
2022/09/25 06:57:14;;;;;;;35.13;19.65;;;;;;;20.14;100.00;95852.38;5102998;28;20118;-49
2022/09/25 06:59:42;;;;;;;34.53;19.20;;;;;;;20.15;100.00;95856.69;5088663;28;20079;-48
2022/09/25 07:04:59;;;;;;;35.78;18.30;;;;;;;20.62;100.00;95868.63;5100764;28;20083;-49
2022/09/25 07:07:30;;;;;;;36.97;19.17;;;;;;;20.91;100.00;95862.75;5095493;28;20070;-50
2022/09/25 07:10:07;;;;;;;32.55;17.42;;;;;;;20.73;100.00;95863.56;5079690;28;20033;-47
2022/09/25 07:12:37;;;;;;;24.85;17.70;;;;;;;21.19;100.00;95862.19;5085032;28;20080;-47
2022/09/25 07:15:06;;;;;;;25.52;17.33;;;;;;;21.22;100.00;95861.75;5082715;28;20080;-49
2022/09/25 07:17:35;;;;;;;33.45;17.27;;;;;;;20.68;100.00;95863.41;5088483;28;20111;-51
2022/09/25 07:20:04;;;;;;;24.80;16.52;;;;;;;21.49;100.00;95860.38;5083730;28;20086;-50
2022/09/25 07:22:32;;;;;;;28.75;15.73;;;;;;;20.25;100.00;95869.56;5083293;28;20467;-48
2022/09/25 07:25:00;;;;;;;24.30;15.82;;;;;;;21.19;100.00;95864.88;5083171;28;20087;-48
2022/09/25 07:27:30;;;;;;;27.80;16.60;;;;;;;21.18;100.00;95872.09;5083931;28;20083;-47
2022/09/25 07:29:59;;;;;;;23.95;16.77;;;;;;;21.21;100.00;95860.91;5085201;28;20079;-47
2022/09/25 07:32:28;;;;;;;24.20;16.15;;;;;;;20.68;100.00;95866.06;5082722;28;20095;-48
2022/09/25 07:34:57;;;;;;;26.65;16.27;;;;;;;20.74;100.00;95868.69;5067018;28;20090;-48
2022/09/25 07:37:25;;;;;;;21.67;16.35;;;;;;;20.45;100.00;95880.09;5084902;28;20078;-46
2022/09/25 07:39:54;;;;;;;20.38;15.70;;;;;;;20.48;100.00;95877.81;5084858;28;20071;-52
2022/09/25 07:42:22;;;;;;;23.17;15.90;;;;;;;21.39;100.00;95864.66;5085013;28;20092;-52
2022/09/25 07:44:53;;;;;;;20.45;15.63;;;;;;;21.15;100.00;95874.41;5080641;28;20083;-52
2022/09/25 07:47:33;;;;;;;20.70;15.43;;;;;;;21.21;100.00;95863.59;5089847;28;20101;-49
2022/09/25 07:50:02;;;;;;;20.37;15.40;;;;;;;20.05;100.00;95870.56;5082619;28;20094;-47
2022/09/25 07:52:30;;;;;;;19.55;14.75;;;;;;;20.30;100.00;95867.88;5091305;28;20502;-47
2022/09/25 07:54:58;;;;;;;17.90;14.40;;;;;;;20.34;100.00;95873.63;5081857;28;20396;-48
2022/09/25 07:57:27;;;;;;;21.13;15.20;;;;;;;20.42;100.00;95869.81;5085863;28;20091;-48
2022/09/25 07:59:55;;;;;;;19.27;14.57;;;;;;;21.85;100.00;95866.69;5075356;28;20087;-52
2022/09/25 08:02:44;;;;;;;19.85;14.25;;;;;;;20.32;100.00;95870.31;5068792;28;20165;-54
2022/09/25 08:06:00;;;;;;;18.90;14.35;;;;;;;22.05;100.00;95855.59;5077338;28;20464;-50
2022/09/25 08:09:12;;;;;;;21.63;17.20;;;;;;;21.73;100.00;95861.25;5073568;28;20078;-55
2022/09/25 08:12:25;;;;;;;24.38;18.77;;;;;;;22.74;100.00;95861.25;5069973;28;20058;-53
2022/09/25 08:15:38;;;;;;;16.25;13.32;;;;;;;22.89;100.00;95860.78;5070791;28;20048;-53
2022/09/25 08:18:52;;;;;;;16.27;13.75;;;;;;;23.19;100.00;95861.44;5053868;28;20041;-50
2022/09/25 08:22:05;;;;;;;17.80;14.65;;;;;;;23.26;100.00;95858.56;5070867;28;20067;-51
2022/09/25 08:25:18;;;;;;;17.80;14.57;;;;;;;22.46;100.00;95860.09;5058983;28;20063;-51
2022/09/25 08:28:31;;;;;;;17.00;14.55;;;;;;;22.73;100.00;95862.28;5062832;28;20045;-51
2022/09/25 08:31:44;;;;;;;16.63;13.88;;;;;;;22.57;100.00;95863.00;5051866;28;20043;-50
2022/09/25 08:35:00;;;;;;;16.13;14.38;;;;;;;23.29;100.00;95855.41;5054745;28;20055;-52
2022/09/25 08:38:12;;;;;;;24.02;19.77;;;;;;;24.08;100.00;95858.19;5059736;28;20597;-50
2022/09/25 08:41:27;;;;;;;16.50;14.70;;;;;;;24.21;100.00;95850.84;5058452;28;20576;-50
2022/09/25 08:44:44;;;;;;;16.67;14.57;;;;;;;23.30;100.00;95859.75;5054983;28;20055;-50
2022/09/25 08:51:30;;;;;;;18.83;15.65;;;;;;;23.77;100.00;95859.56;5058963;28;20052;-52
2022/09/25 08:54:43;;;;;;;18.90;16.23;;;;;;;22.78;100.00;95857.06;5053005;28;20048;-55
2022/09/25 08:57:56;;;;;;;17.33;14.43;;;;;;;23.43;100.00;95869.38;5054411;28;20707;-50
2022/09/25 09:01:12;;;;;;;19.42;16.20;;;;;;;23.49;100.00;95857.66;5061834;28;20543;-49
2022/09/25 09:04:27;;;;;;;18.55;15.52;;;;;;;23.30;100.00;95859.75;5058757;28;20602;-51
2022/09/25 09:07:44;;;;;;;18.17;15.82;;;;;;;23.46;100.00;95864.34;5060425;28;20041;-50
2022/09/25 09:10:59;;;;;;;19.20;16.15;;;;;;;23.54;100.00;95865.84;5078296;28;20051;-54
2022/09/25 09:14:15;;;;;;;19.38;16.25;;;;;;;23.68;100.00;95861.03;5083040;28;20512;-52
2022/09/25 09:17:31;;;;;;;18.02;15.20;;;;;;;23.97;100.00;95855.59;5094397;28;20128;-47
2022/09/25 09:20:50;;;;;;;16.55;14.40;;;;;;;23.55;100.00;95859.41;5094929;28;20032;-52
2022/09/25 09:24:10;;;;;;;18.37;14.77;;;;;;;24.09;100.00;95846.38;5098072;28;20044;-54
2022/09/25 09:27:36;;;;;;;20.63;16.55;;;;;;;24.79;100.00;95849.59;5099641;28;20058;-50
2022/09/25 09:30:56;;;;;;;17.05;14.48;;;;;;;24.67;100.00;95846.97;5092466;27;20246;-48
2022/09/25 09:34:15;;;;;;;;;;;;;;;23.71;100.00;95846.25;5086673;28;20058;-56
2022/09/25 09:37:35;;;;;;;16.65;13.95;;;;;;;23.97;100.00;95844.81;5090646;28;19920;-52
2022/09/25 09:41:08;;;;;;;18.27;14.63;;;;;;;24.90;100.00;95840.56;5086297;28;20032;-53
2022/09/25 09:44:32;;;;;;;18.42;14.75;;;;;;;23.25;100.00;95845.38;5100287;27;20043;-50
2022/09/25 09:47:50;;;;;;;17.02;14.38;;;;;;;24.71;100.00;95842.75;5099179;27;20370;-47
2022/09/25 09:51:07;;;;;;;18.52;15.00;;;;;;;23.32;100.00;95841.47;5097016;27;20493;-54
2022/09/25 09:54:23;;;;;;;18.92;15.02;;;;;;;23.37;100.00;95846.16;5105445;27;20274;-54
2022/09/25 09:57:42;;;;;;;19.55;13.80;;;;;;;23.61;100.00;95841.50;5100158;27;20047;-49
2022/09/25 10:00:54;;;;;;;18.08;14.98;;;;;;;24.20;100.00;95831.19;5102925;27;20053;-48
2022/09/25 10:04:11;;;;;;;16.67;14.23;;;;;;;23.87;100.00;95830.09;5099302;27;20044;-52
2022/09/25 10:07:23;;;;;;;15.38;13.23;;;;;;;24.25;100.00;95816.97;5099257;27;20058;-53
2022/09/25 10:10:37;;;;;;;16.95;14.10;;;;;;;25.10;98.13;95818.41;5098606;27;20516;-49
2022/09/25 10:13:51;;;;;;;15.30;13.13;;;;;;;24.57;100.00;95822.56;5100157;27;20078;-52
2022/09/25 10:17:05;;;;;;;14.45;12.48;;;;;;;25.15;94.90;95826.56;5101955;27;20052;-50
2022/09/25 10:20:20;;;;;;;15.73;12.95;;;;;;;24.63;100.00;95833.19;5101795;27;20061;-53
2022/09/25 10:23:39;;;;;;;14.55;13.02;;;;;;;24.54;100.00;95841.97;5098462;27;20054;-51
2022/09/25 10:26:51;;;;;;;13.77;12.20;;;;;;;26.01;83.02;95829.34;5100564;27;20048;-52
2022/09/25 10:30:13;;;;;;;14.40;11.20;;;;;;;23.75;100.00;95832.06;5098517;27;20040;-48
2022/09/25 10:33:28;;;;;;;12.55;10.85;;;;;;;26.01;75.76;95818.53;5102939;27;20065;-52
2022/09/25 10:36:42;;;;;;;12.55;11.25;;;;;;;24.66;86.42;95826.47;5096265;27;20042;-50
2022/09/25 10:40:01;;;;;;;12.60;10.82;;;;;;;26.69;65.63;95818.78;5095343;27;20897;-48
2022/09/25 10:43:19;;;;;;;12.85;11.45;;;;;;;27.44;60.62;95815.84;5097253;27;20052;-49
2022/09/25 10:50:14;;;;;;;14.73;12.98;;;;;;;25.48;80.91;95838.28;5079133;28;20040;-48
2022/09/25 10:53:28;;;;;;;14.00;11.82;;;;;;;25.23;92.47;95836.94;5097621;27;20044;-53
2022/09/25 10:56:41;;;;;;;12.63;11.32;;;;;;;25.46;87.78;95835.00;5100715;27;20051;-52
2022/09/25 10:59:54;;;;;;;14.32;12.02;;;;;;;25.64;97.79;95829.28;5089862;27;20046;-53
2022/09/25 11:03:20;;;;;;;13.20;11.35;;;;;;;27.24;69.55;95821.22;5097795;27;20050;-53
2022/09/25 11:06:34;;;;;;;13.27;11.88;;;;;;;26.04;84.10;95826.13;5088829;27;20127;-51
2022/09/25 11:09:47;;;;;;;12.75;11.45;;;;;;;25.64;82.42;95831.97;5091858;27;20722;-48
2022/09/25 11:13:01;;;;;;;13.73;12.23;;;;;;;25.88;85.45;95824.41;5088535;27;20421;-49
2022/09/25 11:16:14;;;;;;;12.75;10.88;;;;;;;25.42;85.83;95836.59;5095816;27;20062;-57
2022/09/25 11:19:31;;;;;;;12.07;10.88;;;;;;;25.64;83.97;95831.19;5094881;27;20298;-55
2022/09/25 11:22:46;;;;;;;11.43;10.23;;;;;;;27.38;68.48;95814.22;5090726;27;20867;-49
2022/09/25 11:26:05;;;;;;;12.25;10.95;;;;;;;27.49;60.21;95809.63;5094116;27;20712;-51
2022/09/25 11:29:22;;;;;;;12.25;10.95;;;;;;;25.36;84.07;95822.22;5094697;27;20047;-54
2022/09/25 11:32:42;;;;;;;12.93;11.23;;;;;;;26.40;71.56;95812.09;5094137;27;20050;-49
2022/09/25 11:35:58;;;;;;;12.00;10.80;;;;;;;24.64;91.19;95817.84;5088221;28;20043;-51
2022/09/25 11:42:57;;;;;;;10.70;9.57;;;;;;;25.88;73.37;95800.09;5099638;27;21046;-50
2022/09/25 11:46:19;;;;;;;10.93;9.35;;;;;;;26.78;62.82;95799.34;5093835;27;20044;-56
2022/09/25 11:49:33;;;;;;;12.98;9.73;;;;;;;26.49;70.50;95781.59;5087146;28;20040;-52
2022/09/25 11:52:55;;;;;;;11.63;9.40;;;;;;;26.52;66.48;95786.50;5097863;27;20050;-49
2022/09/25 11:56:20;;;;;;;13.30;10.30;;;;;;;24.89;92.28;95795.78;5092360;28;20048;-48
2022/09/25 11:59:44;;;;;;;11.00;9.90;;;;;;;25.27;79.57;95784.09;5088117;28;20047;-49
2022/09/25 12:03:16;;;;;;;10.90;9.68;;;;;;;25.51;81.01;95781.09;5092503;27;20046;-53
2022/09/25 12:06:47;;;;;;;12.68;10.20;;;;;;;25.50;87.64;95785.69;5098505;27;20053;-47
2022/09/25 12:10:11;;;;;;;8.98;8.07;;;;;;;24.98;80.31;95782.63;5092153;27;20050;-54
2022/09/25 12:13:30;;;;;;;10.73;9.02;;;;;;;25.29;73.04;95781.13;5089320;27;20086;-53
2022/09/25 12:16:56;;;;;;;9.88;8.80;;;;;;;27.03;64.59;95772.38;5093255;27;20039;-52
2022/09/25 12:20:15;;;;;;;9.40;8.38;;;;;;;26.70;65.75;95769.03;5091391;27;20086;-52
2022/09/25 12:23:31;;;;;;;10.27;8.38;;;;;;;26.82;64.31;95766.09;5100848;27;20048;-52
2022/09/25 12:26:51;;;;;;;9.48;8.48;;;;;;;26.59;64.79;95769.22;5093487;27;20057;-54
2022/09/25 12:30:11;;;;;;;9.57;7.43;;;;;;;26.11;66.66;95765.66;5091293;28;20055;-51
2022/09/25 12:33:31;;;;;;;9.30;7.55;;;;;;;26.30;67.09;95761.47;5094383;28;20051;-49
2022/09/25 12:36:47;;;;;;;9.05;7.95;;;;;;;26.03;70.40;95758.84;5092492;27;20044;-53
2022/09/25 12:40:03;;;;;;;11.88;9.02;;;;;;;25.98;72.60;95756.94;5090363;28;20039;-50
2022/09/25 12:43:23;;;;;;;10.73;8.20;;;;;;;25.40;78.50;95755.06;5092743;27;20048;-49
2022/09/25 12:46:41;;;;;;;9.55;8.18;;;;;;;25.72;76.40;95755.09;5104644;27;20056;-53
2022/09/25 12:49:57;;;;;;;9.82;8.25;;;;;;;26.06;67.91;95744.84;5087731;27;20044;-55
2022/09/25 12:53:22;;;;;;;10.35;8.00;;;;;;;26.23;61.60;95739.28;5100098;27;20048;-49